Time;durP1;ratioP1;P1;durP2;ratioP2;P2;SDS_P1;SDS_P2;PMS_P1;PMS_P2;Temp;Humidity;BMP_temperature;BMP_pressure;BME280_temperature;BME280_humidity;BME280_pressure;Samples;Min_cycle;Max_cycle;Signal;HPM_P1;HPM_P2
2022/05/16 00:01:06;;;;;;;5.03;2.03;;;12.40;99.90;;;12.31;65.31;101548.63;5011621;28;20457;-69
2022/05/16 00:03:35;;;;;;;4.77;2.03;;;12.30;99.90;;;12.30;65.34;101546.94;5020348;28;20493;-67
2022/05/16 00:06:06;;;;;;;6.53;2.20;;;12.30;99.90;;;12.36;65.16;101542.59;5016878;28;20433;-69
2022/05/16 00:08:34;;;;;;;4.67;3.40;;;12.30;99.90;;;12.19;65.38;101544.78;5014551;28;20441;-68
2022/05/16 00:11:03;;;;;;;10.97;3.20;;;12.20;99.90;;;12.17;65.65;101539.53;5013336;28;20987;-68
2022/05/16 00:13:32;;;;;;;4.20;2.70;;;12.20;99.90;;;12.19;65.58;101542.91;5008197;28;20416;-68
2022/05/16 00:16:01;;;;;;;7.00;2.70;;;12.20;99.90;;;12.20;65.51;101536.41;5012349;28;20524;-68
2022/05/16 00:18:30;;;;;;;16.33;3.53;;;12.20;99.90;;;12.15;65.54;101533.47;5012542;28;20481;-68
2022/05/16 00:20:59;;;;;;;4.73;3.00;;;12.10;99.90;;;12.15;65.62;101532.66;5020011;28;20488;-68
2022/05/16 00:23:29;;;;;;;4.77;2.33;;;12.10;99.90;;;12.08;65.74;101531.75;5014050;28;20523;-68
2022/05/16 00:25:58;;;;;;;4.77;2.70;;;12.10;99.90;;;12.02;65.98;101533.38;5013011;28;20437;-67
2022/05/16 00:28:26;;;;;;;6.87;2.70;;;12.10;99.90;;;12.00;66.08;101531.91;5012372;28;20469;-67
2022/05/16 00:30:55;;;;;;;2.90;2.30;;;12.00;99.90;;;12.01;66.04;101530.84;5009136;28;20469;-67
2022/05/16 00:33:24;;;;;;;5.67;2.03;;;12.00;99.90;;;11.95;66.12;101534.34;5012355;28;20964;-68
2022/05/16 00:35:53;;;;;;;3.60;2.17;;;12.00;99.90;;;11.90;66.48;101537.66;5013433;28;20503;-68
2022/05/16 00:38:22;;;;;;;2.73;1.80;;;11.90;99.90;;;11.96;66.17;101536.84;5011561;28;20441;-68
2022/05/16 00:40:54;;;;;;;3.73;2.43;;;11.90;99.90;;;11.83;66.58;101539.47;4994421;28;20461;-68
2022/05/16 00:43:42;;;;;;;4.63;3.37;;;11.90;99.90;;;11.79;66.81;101537.31;5013943;28;20468;-66
2022/05/16 00:46:12;;;;;;;3.50;2.40;;;11.80;99.90;;;11.73;66.85;101545.22;5013550;28;20448;-68
2022/05/16 00:48:41;;;;;;;4.73;2.43;;;11.80;99.90;;;11.70;66.93;101545.56;5009145;28;20476;-69
2022/05/16 00:51:16;;;;;;;5.07;2.30;;;11.80;99.90;;;11.63;67.20;101543.81;5012038;28;21062;-67
2022/05/16 00:53:45;;;;;;;2.70;2.33;;;11.70;99.90;;;11.65;67.15;101548.03;5006930;28;20437;-68
2022/05/16 00:56:16;;;;;;;3.60;2.53;;;11.70;99.90;;;11.67;67.05;101550.53;5013710;28;20447;-67
2022/05/16 00:58:49;;;;;;;3.50;2.37;;;11.70;99.90;;;11.75;66.68;101540.44;4989965;28;20470;-68
2022/05/16 01:06:58;;;;;;;5.40;2.67;;;11.80;99.90;;;11.69;66.75;101545.75;5009639;28;20441;-67
2022/05/16 01:09:27;;;;;;;6.10;2.47;;;11.70;99.90;;;11.71;66.70;101546.41;5011634;28;20452;-68
2022/05/16 01:11:58;;;;;;;7.67;4.37;;;11.70;99.90;;;11.68;66.65;101539.50;5018189;28;20494;-68
2022/05/16 01:14:47;;;;;;;4.93;2.80;;;11.70;99.90;;;11.70;66.46;101544.72;5013427;28;20531;-68
2022/05/16 01:17:16;;;;;;;5.97;2.60;;;11.70;99.90;;;11.71;66.43;101547.22;5013300;28;21082;-69
2022/05/16 01:19:46;;;;;;;6.60;4.50;;;11.70;99.90;;;11.66;66.68;101544.28;5011145;28;20507;-68
2022/05/16 01:22:29;;;;;;;3.60;2.70;;;11.70;99.90;;;11.67;66.68;101539.69;5009524;28;20468;-68
2022/05/16 01:25:08;;;;;;;7.40;3.37;;;11.70;99.90;;;11.61;66.56;101535.91;5012469;28;20469;-68
2022/05/16 01:27:45;;;;;;;2.17;1.80;;;11.60;99.90;;;11.52;66.96;101531.59;4996131;28;21608;-69
2022/05/16 01:30:17;;;;;;;6.80;2.53;;;11.60;99.90;;;11.62;66.71;101536.69;5011207;28;20917;-67
2022/05/16 01:32:45;;;;;;;7.63;3.10;;;11.60;99.90;;;11.63;66.53;101539.22;5014156;28;20438;-67
2022/05/16 01:35:19;;;;;;;3.73;2.60;;;11.60;99.90;;;11.57;66.66;101539.19;5011869;28;20426;-68
2022/05/16 01:40:37;;;;;;;3.93;2.87;;;11.60;99.90;;;11.47;66.80;101534.09;5009836;28;20511;-68
2022/05/16 01:43:06;;;;;;;6.80;2.20;;;11.50;99.90;;;11.52;66.84;101525.38;5010938;28;20444;-68
2022/05/16 01:45:36;;;;;;;7.07;2.70;;;11.50;99.90;;;11.51;66.54;101531.81;5015105;28;20477;-68
2022/05/16 01:48:06;;;;;;;4.37;3.30;;;11.50;99.90;;;11.41;66.90;101529.41;5010819;28;20846;-68
2022/05/16 01:50:36;;;;;;;8.23;2.70;;;11.50;99.90;;;11.47;66.73;101533.25;5021523;28;20554;-68
2022/05/16 01:53:06;;;;;;;5.03;2.60;;;11.50;99.90;;;11.49;66.49;101529.28;5010068;28;20449;-68
2022/05/16 01:55:35;;;;;;;7.53;3.40;;;11.50;99.90;;;11.36;66.86;101529.16;5011173;28;20529;-67
2022/05/16 01:58:04;;;;;;;6.57;2.80;;;11.40;99.90;;;11.43;66.54;101526.50;5014626;28;20512;-67
2022/05/16 02:00:34;;;;;;;9.13;3.13;;;11.40;99.90;;;11.39;66.54;101517.91;5014804;28;20457;-67
2022/05/16 02:03:05;;;;;;;3.20;2.73;;;11.40;99.90;;;11.31;66.86;101520.75;5009628;28;20461;-67
2022/05/16 02:05:35;;;;;;;3.42;2.30;;;11.30;99.90;;;11.33;66.70;101515.97;5008088;28;20474;-67
2022/05/16 02:08:07;;;;;;;8.30;3.30;;;11.40;99.90;;;11.41;66.44;101517.75;5012569;28;20193;-68
2022/05/16 02:10:36;;;;;;;7.53;3.43;;;11.40;99.90;;;11.41;66.37;101520.44;5011426;28;20554;-67
2022/05/16 02:13:05;;;;;;;5.10;2.97;;;11.40;99.90;;;11.41;66.29;101512.31;5009070;28;20422;-68
2022/05/16 02:15:37;;;;;;;10.50;3.50;;;11.40;99.90;;;11.41;66.11;101513.16;5011174;28;20527;-68
2022/05/16 02:18:08;;;;;;;11.30;2.83;;;11.40;99.90;;;11.38;66.23;101512.69;5013401;28;20524;-68
2022/05/16 02:20:38;;;;;;;6.68;2.28;;;11.40;99.90;;;11.29;66.54;101514.69;5008429;28;20531;-67
2022/05/16 02:25:59;;;;;;;5.13;2.10;;;11.30;99.90;;;11.25;66.73;101510.69;5010937;28;20278;-68
2022/05/16 02:28:28;;;;;;;9.30;3.30;;;11.30;99.90;;;11.26;66.66;101504.25;5015161;28;20488;-68
2022/05/16 02:30:57;;;;;;;5.47;3.00;;;11.30;99.90;;;11.17;66.65;101499.97;5016641;28;20953;-68
2022/05/16 02:33:26;;;;;;;5.65;2.70;;;11.20;99.90;;;11.16;66.82;101499.13;5007087;28;20846;-68
2022/05/16 02:35:55;;;;;;;4.10;3.03;;;11.20;99.90;;;11.05;67.12;101498.78;5010079;28;20201;-67
2022/05/16 02:38:25;;;;;;;4.30;2.40;;;11.10;99.90;;;11.14;66.90;101503.03;5011515;28;20449;-68
2022/05/16 02:40:54;;;;;;;6.67;3.20;;;11.10;99.90;;;11.11;66.96;101488.03;5009713;28;20452;-68
2022/05/16 02:43:22;;;;;;;5.07;2.43;;;11.10;99.90;;;11.08;67.05;101493.84;5008985;28;20518;-68
2022/05/16 02:45:51;;;;;;;4.32;2.33;;;11.10;99.90;;;11.09;66.87;101483.81;5009980;28;20468;-68
2022/05/16 02:48:20;;;;;;;5.23;2.43;;;11.10;99.90;;;11.11;66.82;101479.06;5010891;28;20201;-68
2022/05/16 02:50:48;;;;;;;4.50;2.40;;;11.10;99.90;;;11.11;66.66;101479.06;5010905;28;21004;-67
2022/05/16 02:53:17;;;;;;;7.70;2.70;;;11.10;99.90;;;11.03;66.91;101473.78;5011436;28;20888;-68
2022/05/16 02:55:47;;;;;;;3.47;2.30;;;11.10;99.90;;;11.03;67.02;101476.47;5008206;28;20249;-68
2022/05/16 02:58:15;;;;;;;6.90;2.57;;;11.10;99.90;;;11.06;66.75;101476.09;5017054;28;20736;-67
2022/05/16 03:00:44;;;;;;;6.30;3.08;;;11.00;99.90;;;11.13;66.50;101466.19;5015006;28;20460;-68
2022/05/16 03:03:13;;;;;;;5.83;2.00;;;11.00;99.90;;;11.08;66.52;101474.88;5008317;28;20251;-68
2022/05/16 03:05:42;;;;;;;8.15;3.22;;;11.10;99.90;;;11.06;66.64;101476.94;5016330;28;20480;-68
2022/05/16 03:08:10;;;;;;;5.18;2.55;;;11.10;99.90;;;11.03;66.73;101476.47;5011582;28;20203;-68
2022/05/16 03:10:39;;;;;;;8.70;3.13;;;11.00;99.90;;;11.01;66.77;101468.53;5019961;28;20226;-68
2022/05/16 03:13:09;;;;;;;5.68;2.38;;;11.00;99.90;;;11.09;66.42;101470.28;5017258;28;20437;-68
2022/05/16 03:15:38;;;;;;;3.30;2.53;;;11.10;99.90;;;11.12;66.24;101469.91;5019157;28;20566;-66
2022/05/16 03:18:06;;;;;;;5.07;2.10;;;11.10;99.90;;;11.12;66.34;101472.63;5010354;28;20197;-67
2022/05/16 03:20:35;;;;;;;3.73;2.43;;;11.10;99.90;;;11.10;66.36;101461.97;5014789;28;20551;-67
2022/05/16 03:23:04;;;;;;;6.00;3.43;;;11.00;99.90;;;11.09;66.28;101464.84;5024954;28;20440;-68
2022/05/16 03:25:32;;;;;;;5.83;3.83;;;11.10;99.90;;;11.14;66.16;101462.41;5015914;28;20469;-68
2022/05/16 03:28:01;;;;;;;3.50;2.43;;;11.10;99.90;;;11.26;65.99;101469.03;5012491;28;20479;-68
2022/05/16 03:30:31;;;;;;;9.30;3.25;;;11.20;99.90;;;11.61;64.96;101465.41;5019366;28;20547;-68
2022/05/16 03:33:00;;;;;;;2.97;2.43;;;11.30;99.90;;;12.12;63.29;101463.31;5024815;28;20192;-67
2022/05/16 03:35:29;;;;;;;9.60;3.83;;;11.50;99.90;;;12.56;61.97;101471.09;5027236;28;20436;-68
2022/05/16 03:37:57;;;;;;;3.80;2.63;;;11.80;97.00;;;13.09;60.14;101452.28;5012836;28;20503;-68
2022/05/16 03:40:45;;;;;;;5.60;2.50;;;12.10;93.40;;;13.14;59.64;101457.97;5013456;28;20465;-68
2022/05/16 03:43:15;;;;;;;2.77;2.27;;;12.40;85.20;;;13.50;58.62;101446.75;5016301;28;20445;-68
2022/05/16 03:45:45;;;;;;;5.93;2.73;;;12.70;76.70;;;14.06;57.17;101441.69;5014891;28;20481;-68
2022/05/16 03:48:14;;;;;;;4.70;2.80;;;13.20;69.00;;;14.78;54.95;101451.56;5014499;28;20445;-67
2022/05/16 03:50:44;;;;;;;6.23;2.20;;;13.30;57.80;;;15.20;53.83;101445.47;5013321;28;20473;-68
2022/05/16 03:53:12;;;;;;;5.03;2.20;;;13.80;50.90;;;15.61;52.45;101444.19;5024005;28;20558;-67
2022/05/16 03:55:41;;;;;;;3.93;2.37;;;14.20;41.90;;;15.59;52.32;101444.38;5017171;28;20472;-67
2022/05/16 03:58:10;;;;;;;8.40;2.37;;;14.30;34.80;;;16.25;50.94;101442.97;5014381;28;20469;-68
2022/05/16 04:00:38;;;;;;;7.97;2.63;;;14.60;32.70;;;16.49;50.25;101447.53;5015006;28;20564;-68
2022/05/16 04:03:08;;;;;;;4.40;2.33;;;14.90;29.20;;;17.18;48.76;101444.34;5025924;28;20433;-68
2022/05/16 04:05:38;;;;;;;4.30;2.67;;;15.30;27.30;;;17.49;47.57;101451.44;5020028;28;20498;-68
2022/05/16 04:08:09;;;;;;;4.07;2.47;;;15.40;25.10;;;18.01;46.64;101451.69;5018563;28;20423;-68
2022/05/16 04:10:37;;;;;;;5.73;2.33;;;15.60;24.60;;;18.50;45.08;101447.56;5015929;28;20491;-67
2022/05/16 04:13:06;;;;;;;2.37;2.00;;;16.00;22.20;;;18.63;44.90;101450.09;5016462;28;20941;-67
2022/05/16 04:15:35;;;;;;;6.73;2.47;;;16.10;20.80;;;18.69;44.37;101434.59;5012864;28;20447;-68
2022/05/16 04:18:04;;;;;;;4.13;1.93;;;16.40;18.90;;;18.31;45.05;101438.66;5016266;28;20567;-68
2022/05/16 04:20:34;;;;;;;5.33;2.60;;;16.50;17.50;;;18.93;43.92;101455.34;5015993;28;20434;-68
2022/05/16 04:23:03;;;;;;;4.53;2.70;;;16.50;18.20;;;19.24;43.02;101452.13;5016382;28;20448;-68
2022/05/16 04:25:32;;;;;;;6.30;1.93;;;16.90;16.80;;;19.37;42.80;101446.34;5023522;28;20459;-67
2022/05/16 04:28:01;;;;;;;2.67;2.47;;;16.60;20.90;;;19.26;42.30;101446.41;5013522;28;20442;-67
2022/05/16 04:30:30;;;;;;;3.13;1.80;;;16.90;18.70;;;19.50;42.19;101442.50;5009931;28;20462;-68
2022/05/16 04:32:59;;;;;;;4.63;2.70;;;17.00;14.90;;;20.00;41.24;101445.22;5014108;28;20445;-67
2022/05/16 04:35:28;;;;;;;6.50;2.17;;;17.30;14.40;;;20.32;40.61;101439.97;5023044;28;20417;-68
2022/05/16 04:37:58;;;;;;;5.50;2.23;;;17.30;15.80;;;20.53;39.71;101444.66;5019232;28;20480;-68
2022/05/16 04:40:27;;;;;;;7.03;2.80;;;17.70;17.80;;;20.92;39.20;101444.56;4993744;28;20477;-68
2022/05/16 04:42:54;;;;;;;6.70;2.97;;;18.00;15.90;;;21.20;38.57;101453.47;5011795;28;20441;-69
2022/05/16 04:45:26;;;;;;;4.53;2.40;;;18.10;14.30;;;20.95;38.74;101449.59;5019268;28;20656;-69
2022/05/16 04:47:58;;;;;;;5.13;2.30;;;18.40;13.00;;;21.34;38.21;101442.88;5025630;28;20432;-69
2022/05/16 04:50:32;;;;;;;2.40;1.80;;;18.30;12.70;;;21.49;37.48;101447.72;5016678;28;20450;-67
2022/05/16 04:53:02;;;;;;;5.23;2.00;;;18.50;12.70;;;20.58;39.04;101441.97;5013647;28;20525;-67
2022/05/16 04:55:31;;;;;;;3.67;2.20;;;18.20;10.80;;;21.25;37.62;101445.25;5010450;28;20441;-69
2022/05/16 04:58:00;;;;;;;4.97;2.60;;;18.50;11.40;;;21.44;37.34;101447.66;5015561;28;20418;-69
2022/05/16 05:00:29;;;;;;;3.10;2.00;;;18.50;11.80;;;21.07;37.57;101451.09;5008220;28;20503;-68
2022/05/16 05:02:58;;;;;;;5.93;2.30;;;18.80;9.30;;;20.77;38.45;101442.47;5019601;28;20433;-68
2022/05/16 05:05:27;;;;;;;8.07;2.57;;;18.60;8.20;;;21.62;37.29;101444.53;5025473;28;20470;-68
2022/05/16 05:07:55;;;;;;;2.80;2.03;;;18.70;7.40;;;21.83;36.41;101440.84;5023075;28;20418;-68
2022/05/16 05:16:08;;;;;;;6.13;2.00;;;19.00;9.10;;;22.00;36.47;101433.28;5017422;28;20510;-68
2022/05/16 05:18:39;;;;;;;2.73;1.67;;;19.30;7.50;;;21.10;37.86;101438.75;5007780;28;20852;-68
2022/05/16 05:21:08;;;;;;;4.30;2.50;;;19.10;8.20;;;21.50;37.17;101436.41;5019326;28;20452;-68
2022/05/16 05:23:39;;;;;;;3.03;2.00;;;19.00;7.90;;;21.23;37.54;101438.38;5017265;28;20444;-69
2022/05/16 05:26:11;;;;;;;10.00;2.40;;;19.00;9.20;;;19.92;39.75;101442.91;5007854;28;20830;-69
2022/05/16 05:28:42;;;;;;;3.47;2.40;;;18.60;8.00;;;18.27;42.68;101453.09;5008005;28;20809;-68
2022/05/16 05:31:13;;;;;;;6.70;2.73;;;17.60;8.00;;;17.08;45.36;101444.06;5012566;28;20552;-70
2022/05/16 05:33:42;;;;;;;3.23;2.00;;;17.00;13.50;;;16.41;47.06;101443.19;5009006;28;20574;-68
2022/05/16 05:36:12;;;;;;;5.00;2.50;;;16.30;13.20;;;16.24;47.72;101453.03;5022301;28;20960;-67
2022/05/16 05:38:40;;;;;;;4.07;2.50;;;16.10;15.50;;;16.21;48.31;101452.66;4998957;28;20436;-69
2022/05/16 05:41:11;;;;;;;4.33;2.07;;;15.90;16.40;;;16.37;48.05;101441.13;5004256;28;20469;-67
2022/05/16 05:43:41;;;;;;;2.90;1.77;;;16.00;16.50;;;16.48;47.56;101449.41;5015482;28;20520;-68
2022/05/16 05:46:10;;;;;;;4.60;1.57;;;16.10;16.70;;;16.46;47.26;101443.34;5020082;28;20499;-68
2022/05/16 05:48:39;;;;;;;5.50;1.93;;;16.10;16.30;;;16.52;47.13;101449.78;5013142;28;21006;-68
2022/05/16 05:51:09;;;;;;;2.40;1.87;;;16.20;16.00;;;16.53;47.06;101443.28;5026258;23;20493;-72
2022/05/16 05:53:38;;;;;;;5.93;2.40;;;16.20;16.20;;;16.44;47.04;101453.66;5021036;28;20507;-74
2022/05/16 05:56:07;;;;;;;3.03;2.57;;;16.20;15.60;;;16.65;46.81;101449.69;5015822;28;20455;-73
2022/05/16 05:58:38;;;;;;;4.00;3.00;;;16.20;15.80;;;16.65;46.71;101452.41;5016364;28;20528;-74
2022/05/16 06:01:08;;;;;;;6.33;2.80;;;16.40;16.70;;;16.65;46.74;101444.22;5009761;28;20500;-74
2022/05/16 06:03:37;;;;;;;5.80;2.40;;;16.30;15.70;;;16.77;46.55;101447.00;5011226;28;20532;-74
2022/05/16 06:06:06;;;;;;;5.93;2.60;;;16.40;15.80;;;16.53;46.98;101435.06;5004398;28;20480;-74
2022/05/16 06:08:35;;;;;;;4.70;2.17;;;16.30;15.40;;;16.50;47.06;101441.00;5007671;28;20483;-74
2022/05/16 06:11:04;;;;;;;2.97;2.10;;;16.20;16.30;;;16.66;46.98;101445.03;5006775;28;21202;-74
2022/05/16 06:13:33;;;;;;;7.63;2.87;;;16.30;15.80;;;16.89;46.80;101445.97;5010225;28;20464;-73
2022/05/16 06:16:04;;;;;;;10.33;2.60;;;16.50;15.20;;;17.01;46.29;101458.88;5007904;28;20507;-75
2022/05/16 06:18:33;;;;;;;4.00;2.10;;;16.60;14.90;;;16.85;46.38;101441.22;5010933;28;20439;-72
2022/05/16 06:21:07;;;;;;;3.43;2.27;;;16.50;14.80;;;17.00;46.40;101441.66;5012562;28;20556;-74
2022/05/16 06:23:36;;;;;;;3.10;2.60;;;16.60;15.90;;;17.11;46.36;101432.66;5008050;28;20488;-74
2022/05/16 06:26:05;;;;;;;4.47;2.00;;;16.70;14.60;;;17.13;46.32;101441.47;5011605;28;20439;-78
2022/05/16 06:28:38;;;;;;;4.37;2.03;;;16.80;16.10;;;17.33;46.19;101449.41;5013627;28;20494;-76
2022/05/16 06:31:09;;;;;;;8.40;2.63;;;16.90;16.00;;;17.59;45.88;101450.91;5013800;28;20472;-77
2022/05/16 06:33:38;;;;;;;5.73;1.93;;;17.10;14.00;;;17.57;45.47;101447.56;4998300;28;20468;-77
2022/05/16 06:36:07;;;;;;;8.80;2.20;;;17.20;14.50;;;17.60;45.19;101453.41;5010703;28;20469;-78
2022/05/16 06:38:36;;;;;;;3.83;1.90;;;17.30;13.20;;;17.79;45.66;101449.50;5014001;28;20441;-80
2022/05/16 06:41:05;;;;;;;2.50;1.53;;;17.40;14.90;;;17.91;44.38;101448.72;5013422;28;20504;-77
2022/05/16 06:43:36;;;;;;;6.77;2.30;;;17.50;13.30;;;17.89;44.71;101451.66;5015307;28;20433;-80
2022/05/16 06:46:05;;;;;;;6.00;1.90;;;17.50;13.30;;;18.25;44.71;101445.94;5018946;28;20487;-78
2022/05/16 06:48:35;;;;;;;7.83;2.10;;;17.70;13.10;;;17.98;44.29;101447.50;5024483;28;20484;-79
2022/05/16 06:55:29;;;;;;;3.10;1.93;;;17.90;12.00;;;18.21;44.12;101449.41;4990211;28;20478;-75
2022/05/16 06:57:59;;;;;;;3.83;1.80;;;18.00;12.20;;;18.33;43.97;101454.88;5013484;28;20543;-76
2022/05/16 07:00:28;;;;;;;3.90;2.30;;;18.00;12.20;;;18.51;44.11;101455.56;5023230;28;20475;-76
2022/05/16 07:02:57;;;;;;;6.83;2.20;;;18.10;12.20;;;18.84;43.88;101454.09;5014437;28;20415;-78
2022/05/16 07:05:49;;;;;;;7.40;2.43;;;18.30;12.20;;;19.13;43.15;101452.19;5014025;28;20449;-75
2022/05/16 07:08:21;;;;;;;3.87;2.00;;;18.70;11.30;;;19.14;42.16;101454.69;5012594;28;20443;-75
2022/05/16 07:10:52;;;;;;;3.00;2.10;;;18.90;9.70;;;19.21;42.01;101455.38;5011063;28;20475;-73
2022/05/16 07:13:24;;;;;;;5.60;2.53;;;19.00;9.90;;;18.95;42.67;101445.00;5010160;28;20924;-74
2022/05/16 07:15:54;;;;;;;4.97;1.87;;;18.80;9.40;;;19.06;42.44;101444.13;5010123;28;21043;-74
2022/05/16 07:18:27;;;;;;;3.70;2.10;;;18.90;9.30;;;19.03;42.50;101450.06;5008821;28;20444;-75
2022/05/16 07:20:59;;;;;;;2.00;1.53;;;18.80;9.20;;;19.31;42.83;101447.34;5011508;28;20845;-75
2022/05/16 07:23:29;;;;;;;3.00;2.50;;;18.90;9.70;;;19.46;41.46;101453.13;5012524;28;20445;-74
2022/05/16 07:28:45;;;;;;;3.10;2.20;;;19.10;9.00;;;19.44;41.65;101447.06;5011836;28;20432;-75
2022/05/16 07:31:15;;;;;;;8.20;2.77;;;19.20;9.20;;;19.38;41.50;101447.19;5016752;28;20464;-74
2022/05/16 07:33:44;;;;;;;7.73;2.13;;;19.20;8.30;;;19.59;41.26;101445.66;5014327;28;20423;-75
2022/05/16 07:36:16;;;;;;;5.20;2.40;;;19.20;8.60;;;19.53;41.67;101445.56;5015106;28;20475;-74
2022/05/16 07:38:45;;;;;;;3.43;2.17;;;19.20;8.70;;;19.52;41.72;101438.41;5031427;28;20484;-74
2022/05/16 07:41:19;;;;;;;7.70;2.00;;;19.20;8.90;;;19.69;41.79;101443.09;5016453;28;20431;-75
2022/05/16 07:43:48;;;;;;;3.80;2.47;;;19.30;9.40;;;19.79;41.23;101440.50;5017441;28;20437;-77
2022/05/16 07:46:18;;;;;;;3.50;2.00;;;19.40;8.30;;;19.99;40.69;101445.50;5012107;28;20910;-75
2022/05/16 07:48:48;;;;;;;3.67;1.73;;;19.60;8.70;;;20.10;40.48;101441.81;5015508;28;20800;-75
2022/05/16 07:51:20;;;;;;;2.60;1.60;;;19.70;7.90;;;20.45;40.33;101445.09;5020360;28;20497;-75
2022/05/16 07:53:49;;;;;;;5.23;1.93;;;20.00;8.20;;;20.63;40.27;101452.19;5016487;28;20859;-75
2022/05/16 07:56:19;;;;;;;4.93;2.23;;;20.30;7.90;;;20.90;39.80;101441.28;5016179;28;20442;-75
2022/05/16 07:58:49;;;;;;;2.47;2.03;;;20.50;7.70;;;21.12;39.68;101437.38;5018451;28;20448;-75
2022/05/16 08:01:18;;;;;;;3.17;2.30;;;20.60;7.70;;;21.12;39.10;101448.41;5017308;28;20440;-76
2022/05/16 08:03:48;;;;;;;2.30;1.53;;;20.80;6.60;;;20.79;39.50;101445.81;5020404;28;20433;-75
2022/05/16 08:06:20;;;;;;;5.70;2.50;;;20.60;6.70;;;20.79;39.24;101443.06;5010974;28;20404;-76
2022/05/16 08:11:38;;;;;;;4.03;2.40;;;20.50;5.00;;;20.26;40.40;101452.78;5011585;28;20444;-74
2022/05/16 08:14:07;;;;;;;5.20;2.57;;;20.20;6.90;;;20.46;40.03;101443.19;5014358;28;20411;-74
2022/05/16 08:16:36;;;;;;;3.90;1.50;;;20.20;6.80;;;20.61;40.21;101437.88;5015772;28;20433;-73
2022/05/16 08:19:06;;;;;;;6.00;1.90;;;20.20;4.70;;;20.81;39.04;101429.91;5017121;28;20445;-74
2022/05/16 08:21:39;;;;;;;3.50;1.90;;;20.40;5.00;;;20.78;39.51;101433.97;5016571;28;20523;-74
2022/05/16 08:24:09;;;;;;;4.53;2.27;;;20.60;4.60;;;20.67;39.47;101431.38;5029910;28;20473;-74
2022/05/16 08:26:40;;;;;;;4.40;1.77;;;20.40;4.70;;;20.87;38.91;101431.59;5013425;28;20518;-77
2022/05/16 08:29:09;;;;;;;1.93;1.50;;;20.60;4.40;;;20.85;39.35;101422.78;5012238;28;20421;-73
2022/05/16 08:31:40;;;;;;;4.43;2.33;;;20.50;4.40;;;21.06;38.56;101421.91;5027697;28;20503;-74
2022/05/16 08:34:10;;;;;;;3.20;1.37;;;20.70;3.70;;;21.15;38.24;101417.66;5014420;28;20492;-73
2022/05/16 08:42:14;;;;;;;4.47;2.00;;;20.80;3.80;;;21.58;38.23;101418.59;5011666;28;20429;-75
2022/05/16 08:44:58;;;;;;;4.20;1.90;;;21.10;3.90;;;21.70;38.22;101419.25;5011973;28;20539;-75
2022/05/16 08:47:51;;;;;;;3.30;2.23;;;21.20;3.60;;;21.67;38.37;101414.25;5013375;28;20474;-75
2022/05/16 08:50:28;;;;;;;4.70;2.73;;;21.40;3.90;;;21.57;38.14;101422.44;5012033;28;20459;-74
2022/05/16 08:53:06;;;;;;;5.33;1.43;;;21.40;3.10;;;21.82;38.66;101414.38;5030701;28;20412;-74
2022/05/16 08:55:40;;;;;;;5.83;2.47;;;21.40;3.90;;;22.25;37.32;101416.06;5009491;28;20411;-74
2022/05/16 08:58:16;;;;;;;2.20;1.70;;;21.80;3.00;;;22.59;36.60;101411.00;5020166;28;20447;-73
2022/05/16 09:00:53;;;;;;;4.00;2.67;;;22.10;1.60;;;22.54;36.30;101409.06;5012080;28;20451;-74
2022/05/16 09:03:31;;;;;;;7.23;2.07;;;22.20;1.00;;;22.51;36.88;101403.25;5009898;28;20415;-75
2022/05/16 09:06:12;;;;;;;3.40;1.80;;;22.20;1.20;;;22.25;36.37;101406.97;5022499;28;20442;-75
2022/05/16 09:08:50;;;;;;;2.30;1.73;;;22.00;1.00;;;22.10;37.46;101405.78;5007857;28;20472;-73
2022/05/16 09:11:30;;;;;;;3.10;2.20;;;21.80;1.40;;;22.38;36.89;101414.75;5010101;28;20453;-74
2022/05/16 09:14:04;;;;;;;6.80;2.10;;;21.90;1.20;;;22.30;36.50;101412.50;5022351;28;20409;-74
2022/05/16 09:16:45;;;;;;;4.07;2.03;;;22.00;1.00;;;22.27;36.96;101408.34;5017670;28;20502;-74
2022/05/16 09:19:56;;;;;;;2.93;2.00;;;22.10;1.00;;;22.37;37.12;101396.53;5020440;28;20456;-74
2022/05/16 09:22:33;;;;;;;11.33;3.00;;;22.10;1.00;;;22.77;36.66;101391.22;5019438;28;20423;-74
2022/05/16 09:25:14;;;;;;;3.10;1.90;;;22.40;1.30;;;22.45;36.50;101390.53;5041422;28;20437;-74
2022/05/16 09:30:43;;;;;;;4.70;2.30;;;22.10;1.20;;;22.47;35.99;101377.28;5012422;28;20444;-74
2022/05/16 09:33:21;;;;;;;5.27;2.03;;;22.30;1.00;;;22.26;36.53;101370.88;5028432;28;20453;-74
2022/05/16 09:35:59;;;;;;;5.73;2.13;;;22.20;1.00;;;22.13;37.17;101367.75;5014782;28;20477;-74
2022/05/16 09:38:28;;;;;;;3.73;1.83;;;22.00;1.00;;;22.44;36.46;101369.56;5018091;28;20411;-74
2022/05/16 09:41:17;;;;;;;2.97;1.70;;;22.20;1.00;;;22.28;36.68;101370.59;5008371;28;20492;-75
2022/05/16 09:43:58;;;;;;;2.77;1.40;;;22.10;1.00;;;22.35;36.17;101383.03;5012753;28;20986;-74
2022/05/16 09:46:35;;;;;;;2.80;2.00;;;22.10;1.00;;;22.49;36.89;101377.88;5017733;28;20429;-74
2022/05/16 09:49:15;;;;;;;2.20;1.60;;;22.20;1.00;;;22.71;35.90;101373.00;5013108;28;20444;-74
2022/05/16 09:51:49;;;;;;;2.97;1.80;;;22.40;1.00;;;22.64;35.76;101368.81;5008852;28;20583;-74
2022/05/16 09:54:31;;;;;;;2.87;1.80;;;22.40;1.00;;;22.99;35.11;101370.88;5014940;28;20407;-75
2022/05/16 09:57:18;;;;;;;3.33;1.70;;;22.60;1.00;;;23.40;35.17;101367.03;5015527;28;20437;-74
2022/05/16 09:59:51;;;;;;;2.67;2.40;;;22.90;1.00;;;23.29;34.33;101363.44;5015930;28;20415;-75
2022/05/16 10:02:27;;;;;;;1.80;1.30;;;23.00;1.00;;;23.00;34.17;101361.47;5018056;28;20916;-75
2022/05/16 10:05:00;;;;;;;4.30;2.20;;;22.70;1.00;;;22.88;34.60;101357.06;5031300;28;20526;-74
2022/05/16 10:07:43;;;;;;;4.03;2.33;;;22.70;1.00;;;23.03;34.65;101367.28;5015187;28;20439;-75
2022/05/16 10:10:19;;;;;;;4.60;1.30;;;22.70;1.00;;;23.38;34.12;101369.28;5015320;28;20514;-74
2022/05/16 10:12:54;;;;;;;2.70;1.53;;;22.80;1.00;;;23.61;34.58;101374.25;5015818;28;20423;-74
2022/05/16 10:15:23;;;;;;;5.23;1.40;;;23.10;1.00;;;23.67;33.81;101378.66;5014049;28;20491;-73
2022/05/16 10:17:55;;;;;;;3.30;2.47;;;23.30;1.00;;;23.33;34.56;101372.03;5012775;28;20449;-73
2022/05/16 10:20:33;;;;;;;2.30;1.90;;;23.20;1.00;;;23.10;34.59;101373.38;5015977;28;20459;-74
2022/05/16 10:23:08;;;;;;;3.90;2.00;;;23.00;1.00;;;22.97;34.65;101354.59;5032383;28;20439;-75
2022/05/16 10:25:44;;;;;;;6.77;2.40;;;22.80;1.00;;;23.17;34.45;101351.03;5016607;28;20435;-74
2022/05/16 10:28:24;;;;;;;2.60;1.33;;;22.90;1.00;;;23.16;34.26;101350.19;5018039;28;20479;-74
2022/05/16 10:33:45;;;;;;;2.10;1.50;;;23.00;1.00;;;23.49;33.91;101348.84;5015792;28;20454;-74
2022/05/16 10:36:26;;;;;;;3.33;1.60;;;23.20;1.00;;;23.52;33.79;101347.47;5016287;28;20900;-75
2022/05/16 10:39:04;;;;;;;2.10;1.63;;;23.30;1.00;;;23.64;33.63;101339.72;5012883;28;20429;-75
2022/05/16 10:41:43;;;;;;;3.63;2.00;;;23.40;1.00;;;23.77;33.25;101339.97;5011412;28;20431;-75
2022/05/16 10:44:26;;;;;;;3.23;2.10;;;23.40;1.00;;;24.28;33.18;101334.31;5009336;28;20422;-75
2022/05/16 10:47:04;;;;;;;3.17;2.33;;;23.70;1.00;;;24.45;32.73;101337.56;5014554;28;20415;-74
2022/05/16 10:49:42;;;;;;;3.30;1.83;;;24.00;1.00;;;24.50;32.17;101326.47;5013481;28;20435;-74
2022/05/16 10:52:33;;;;;;;4.17;2.00;;;24.10;1.00;;;24.51;32.37;101333.66;5016572;28;20426;-74
2022/05/16 10:55:02;;;;;;;5.27;1.77;;;24.10;1.00;;;23.72;32.64;101331.69;5011730;28;20475;-74
2022/05/16 10:58:12;;;;;;;4.03;2.00;;;23.70;1.00;;;23.46;33.14;101316.25;5017189;28;20458;-74
2022/05/16 11:00:53;;;;;;;6.20;1.90;;;23.40;1.00;;;23.87;32.71;101316.19;5024560;28;20495;-74
2022/05/16 11:04:04;;;;;;;2.20;1.63;;;23.50;1.00;;;23.97;32.78;101319.72;5009517;28;20452;-74
2022/05/16 11:07:05;;;;;;;3.87;1.47;;;23.60;1.00;;;23.91;32.86;101307.06;5020986;28;20415;-74
2022/05/16 11:09:50;;;;;;;3.13;1.77;;;23.50;1.00;;;24.26;32.62;101308.88;5016849;28;20560;-74
2022/05/16 11:12:28;;;;;;;5.93;1.90;;;23.80;1.00;;;24.24;32.48;101300.88;5017959;28;20437;-74
2022/05/16 11:15:10;;;;;;;3.77;2.13;;;24.00;1.00;;;24.29;31.96;101302.78;5016618;28;20466;-74